Time;durP1;ratioP1;P1;durP2;ratioP2;P2;SDS_P1;SDS_P2;PMS_P1;PMS_P2;Temp;Humidity;BMP_temperature;BMP_pressure;BME280_temperature;BME280_humidity;BME280_pressure;Samples;Min_cycle;Max_cycle;Signal;HPM_P1;HPM_P2
2024/01/05 00:01:29;;;;;;;15.32;9.80;;;4.70;99.90;;;;;;4858667;29;20148;-63
2024/01/05 00:03:56;;;;;;;19.52;11.07;;;4.80;99.90;;;;;;4858646;29;20064;-63
2024/01/05 00:06:22;;;;;;;18.52;11.02;;;4.80;99.90;;;;;;4858312;29;20049;-63
2024/01/05 00:08:48;;;;;;;19.25;10.05;;;4.70;99.90;;;;;;4857431;29;20136;-63
2024/01/05 00:11:19;;;;;;;15.63;10.02;;;4.80;99.90;;;;;;4872716;29;20470;-62
2024/01/05 00:13:46;;;;;;;19.60;10.98;;;4.80;99.90;;;;;;4857192;29;20061;-62
2024/01/05 00:16:20;;;;;;;14.63;9.65;;;4.60;99.90;;;;;;4874154;29;20060;-62
2024/01/05 00:18:46;;;;;;;16.65;9.50;;;4.80;99.90;;;;;;4876365;29;20072;-62
2024/01/05 00:21:23;;;;;;;15.07;10.10;;;4.80;99.90;;;;;;4875228;29;20049;-62
2024/01/05 00:23:50;;;;;;;18.75;10.48;;;4.60;99.90;;;;;;4876488;29;20045;-63
2024/01/05 00:26:17;;;;;;;17.35;9.50;;;4.70;99.90;;;;;;4860953;29;20058;-62
2024/01/05 00:28:45;;;;;;;18.55;9.98;;;4.70;99.90;;;;;;4845210;29;20066;-62
2024/01/05 00:31:13;;;;;;;15.18;9.32;;;4.60;99.90;;;;;;4861261;29;20058;-63
2024/01/05 00:33:40;;;;;;;18.23;10.57;;;4.60;99.90;;;;;;4844937;29;20053;-61
2024/01/05 00:36:08;;;;;;;18.92;10.10;;;4.60;99.90;;;;;;4860872;29;20350;-62
2024/01/05 00:38:35;;;;;;;17.02;9.57;;;4.70;99.90;;;;;;4861735;29;20056;-62
2024/01/05 00:41:03;;;;;;;17.58;9.60;;;4.50;99.90;;;;;;4875977;29;20419;-62
2024/01/05 00:43:29;;;;;;;18.08;10.18;;;4.60;99.90;;;;;;4860297;29;20485;-61
2024/01/05 00:45:56;;;;;;;15.32;9.02;;;4.70;99.90;;;;;;4876371;29;20045;-62
2024/01/05 00:48:22;;;;;;;17.48;10.05;;;4.60;99.90;;;;;;4879878;29;20052;-62
2024/01/05 00:50:49;;;;;;;14.18;9.30;;;4.60;99.90;;;;;;4879902;29;20064;-62
2024/01/05 00:53:15;;;;;;;17.58;9.93;;;4.50;99.90;;;;;;4880184;29;20092;-62
2024/01/05 00:55:42;;;;;;;14.88;9.52;;;4.70;99.90;;;;;;4866455;29;20045;-62
2024/01/05 00:58:08;;;;;;;15.65;9.30;;;4.50;99.90;;;;;;4860013;29;20471;-63
2024/01/05 01:00:35;;;;;;;16.13;9.60;;;4.60;99.90;;;;;;4875623;29;20059;-62
2024/01/05 01:03:02;;;;;;;14.50;8.98;;;4.60;99.90;;;;;;4860343;29;20076;-63
2024/01/05 01:05:28;;;;;;;17.30;10.00;;;4.50;99.90;;;;;;4865493;29;20063;-63
2024/01/05 01:07:55;;;;;;;16.00;9.90;;;4.40;99.90;;;;;;4878637;29;20060;-62
2024/01/05 01:10:21;;;;;;;16.58;10.05;;;4.50;99.90;;;;;;4879673;29;20060;-63
2024/01/05 01:12:47;;;;;;;13.30;9.25;;;4.50;99.90;;;;;;4878832;29;20454;-63
2024/01/05 01:15:14;;;;;;;14.77;8.63;;;4.40;99.90;;;;;;4869753;29;20351;-62
2024/01/05 01:17:40;;;;;;;14.10;9.60;;;4.50;99.90;;;;;;4860214;29;20065;-62
2024/01/05 01:20:07;;;;;;;13.48;8.48;;;4.40;99.90;;;;;;4860260;29;20049;-63
2024/01/05 01:22:33;;;;;;;14.43;8.48;;;4.30;99.90;;;;;;4859785;29;20049;-62
2024/01/05 01:24:59;;;;;;;12.73;8.30;;;4.30;99.90;;;;;;4868330;29;20061;-62
2024/01/05 01:27:26;;;;;;;13.95;7.93;;;4.50;99.90;;;;;;4878392;29;20064;-62
2024/01/05 01:29:52;;;;;;;13.27;8.10;;;4.40;99.90;;;;;;4878477;29;20064;-63
2024/01/05 01:32:18;;;;;;;13.55;8.18;;;4.30;99.90;;;;;;4878065;29;20646;-62
2024/01/05 01:34:45;;;;;;;12.70;7.95;;;4.50;99.90;;;;;;4873511;29;20057;-63
2024/01/05 01:37:11;;;;;;;14.95;8.63;;;4.30;99.90;;;;;;4859182;29;20057;-62
2024/01/05 01:39:37;;;;;;;10.40;7.13;;;4.50;99.90;;;;;;4860438;29;20053;-61
2024/01/05 01:42:04;;;;;;;14.15;7.72;;;4.30;99.90;;;;;;4860433;29;20064;-62
2024/01/05 01:44:31;;;;;;;12.75;8.50;;;4.50;99.90;;;;;;4864347;29;20056;-64
2024/01/05 01:46:58;;;;;;;12.40;8.13;;;4.30;99.90;;;;;;4878324;29;20056;-61
2024/01/05 01:49:25;;;;;;;14.45;8.63;;;4.50;99.90;;;;;;4865374;29;20072;-62
2024/01/05 01:51:53;;;;;;;13.98;8.95;;;4.40;99.90;;;;;;4844245;29;20067;-62
2024/01/05 01:54:20;;;;;;;12.40;8.27;;;4.40;99.90;;;;;;4859694;29;20058;-63
2024/01/05 01:56:48;;;;;;;13.63;8.18;;;4.30;99.90;;;;;;4859742;29;20061;-63
2024/01/05 01:59:15;;;;;;;10.60;7.68;;;4.30;99.90;;;;;;4859529;29;20047;-62
2024/01/05 02:01:43;;;;;;;12.60;8.32;;;4.50;99.90;;;;;;4875498;29;20049;-63
2024/01/05 02:04:19;;;;;;;10.85;7.28;;;4.30;99.90;;;;;;4862694;29;20065;-62
2024/01/05 02:06:45;;;;;;;12.63;8.90;;;4.50;99.90;;;;;;4879074;29;20152;-61
2024/01/05 02:09:12;;;;;;;14.80;8.68;;;4.30;99.90;;;;;;4878395;29;20400;-62
2024/01/05 02:11:39;;;;;;;13.65;8.52;;;4.30;99.90;;;;;;4862952;29;20064;-62
2024/01/05 02:14:05;;;;;;;13.93;7.55;;;4.30;99.90;;;;;;4877870;29;20469;-62
2024/01/05 02:16:32;;;;;;;14.55;8.07;;;4.40;99.90;;;;;;4859564;29;20060;-62
2024/01/05 02:18:58;;;;;;;12.90;8.18;;;4.40;99.90;;;;;;4859782;29;20064;-62
2024/01/05 02:21:29;;;;;;;11.60;7.68;;;4.20;99.90;;;;;;4860271;29;20056;-62
2024/01/05 02:23:56;;;;;;;13.02;8.48;;;4.40;99.90;;;;;;4860868;29;20049;-63
2024/01/05 02:26:22;;;;;;;12.73;7.82;;;4.40;99.90;;;;;;4878225;29;20060;-62
2024/01/05 02:28:48;;;;;;;14.35;9.68;;;4.50;99.90;;;;;;4879177;29;20378;-63
2024/01/05 02:31:15;;;;;;;14.43;8.93;;;4.30;99.90;;;;;;4879722;29;20064;-62
2024/01/05 02:33:41;;;;;;;11.90;8.35;;;4.40;99.90;;;;;;4879862;29;20056;-63
2024/01/05 02:36:08;;;;;;;11.30;8.35;;;4.40;99.90;;;;;;4880032;29;20056;-63
2024/01/05 02:38:34;;;;;;;12.77;8.38;;;4.50;99.90;;;;;;4879778;29;20049;-64
2024/01/05 02:41:00;;;;;;;13.05;8.57;;;4.20;99.90;;;;;;4879487;29;20357;-63
2024/01/05 02:43:26;;;;;;;14.82;8.93;;;4.50;99.90;;;;;;4881714;29;20068;-62
2024/01/05 02:45:53;;;;;;;13.90;8.25;;;4.30;99.90;;;;;;4865466;29;20053;-63
2024/01/05 02:48:19;;;;;;;12.85;8.40;;;4.30;99.90;;;;;;4861168;29;20080;-62
2024/01/05 02:50:45;;;;;;;11.63;8.30;;;4.30;99.90;;;;;;4859921;29;20058;-63
2024/01/05 02:53:12;;;;;;;12.30;8.95;;;4.40;99.90;;;;;;4859196;29;20481;-63
2024/01/05 02:55:38;;;;;;;12.15;9.00;;;4.40;99.90;;;;;;4859110;29;20054;-63
2024/01/05 02:58:04;;;;;;;12.55;8.10;;;4.60;99.90;;;;;;4858747;29;20501;-63
2024/01/05 03:00:31;;;;;;;11.32;8.75;;;4.40;99.90;;;;;;4873724;29;20371;-62
2024/01/05 03:02:57;;;;;;;11.70;8.55;;;4.40;99.90;;;;;;4858160;29;20053;-62
2024/01/05 03:05:23;;;;;;;12.40;8.65;;;4.40;99.90;;;;;;4868496;29;20139;-63
2024/01/05 03:07:49;;;;;;;11.45;8.40;;;4.40;99.90;;;;;;4876362;29;20064;-63
2024/01/05 03:10:16;;;;;;;14.57;9.57;;;4.60;99.90;;;;;;4861706;29;20484;-62
2024/01/05 03:12:42;;;;;;;11.30;9.27;;;4.50;99.90;;;;;;4878122;29;20052;-62
2024/01/05 03:15:09;;;;;;;11.93;9.18;;;4.60;99.90;;;;;;4877819;29;20060;-62
2024/01/05 03:17:35;;;;;;;13.02;8.70;;;4.60;99.90;;;;;;4876954;29;20053;-62
2024/01/05 03:20:02;;;;;;;13.95;9.52;;;4.40;99.90;;;;;;4876891;29;20093;-62
2024/01/05 03:22:29;;;;;;;12.77;8.57;;;4.70;99.90;;;;;;4877035;29;20144;-62
2024/01/05 03:24:55;;;;;;;11.90;8.68;;;4.60;99.90;;;;;;4870191;29;20485;-62
2024/01/05 03:27:24;;;;;;;12.57;8.80;;;4.50;99.90;;;;;;4856637;29;20459;-62
2024/01/05 03:29:50;;;;;;;13.43;9.18;;;4.50;99.90;;;;;;4857426;29;20057;-62
2024/01/05 03:32:17;;;;;;;13.38;8.40;;;4.50;99.90;;;;;;4856801;29;20049;-63
2024/01/05 03:34:44;;;;;;;14.98;9.00;;;4.60;99.90;;;;;;4861744;29;20385;-62
2024/01/05 03:37:11;;;;;;;12.25;8.48;;;4.70;99.90;;;;;;4875892;29;20052;-62
2024/01/05 03:39:37;;;;;;;12.68;9.40;;;4.70;99.90;;;;;;4860268;29;20064;-63
2024/01/05 03:42:03;;;;;;;15.13;9.48;;;4.60;99.90;;;;;;4875729;29;20334;-62
2024/01/05 03:44:30;;;;;;;13.93;9.40;;;4.90;99.90;;;;;;4872723;29;20340;-61
2024/01/05 03:46:56;;;;;;;13.52;8.80;;;4.70;99.90;;;;;;4841297;29;20291;-62
2024/01/05 03:49:23;;;;;;;11.43;8.40;;;4.80;99.90;;;;;;4857314;29;20068;-62
2024/01/05 03:51:49;;;;;;;13.75;8.98;;;4.90;99.90;;;;;;4858055;29;20541;-63
2024/01/05 03:54:15;;;;;;;12.95;8.85;;;4.90;99.90;;;;;;4858629;29;20068;-63
2024/01/05 03:56:46;;;;;;;13.10;8.70;;;4.90;99.90;;;;;;4874920;29;20488;-62
2024/01/05 03:59:14;;;;;;;13.35;8.15;;;5.00;99.90;;;;;;4876449;29;20068;-62
2024/01/05 04:01:47;;;;;;;12.75;8.80;;;4.90;99.90;;;;;;4880380;29;20053;-62
2024/01/05 04:04:14;;;;;;;14.82;9.40;;;4.70;99.90;;;;;;4878722;29;20083;-63
2024/01/05 04:06:40;;;;;;;14.90;9.30;;;4.70;99.90;;;;;;4879546;29;20346;-63
2024/01/05 04:09:09;;;;;;;13.57;8.85;;;5.00;99.90;;;;;;4880210;29;20056;-64
2024/01/05 04:11:37;;;;;;;12.77;9.43;;;5.00;99.90;;;;;;4863621;29;20488;-62
2024/01/05 04:14:05;;;;;;;14.93;9.43;;;5.00;99.90;;;;;;4879001;29;20069;-62
2024/01/05 04:16:31;;;;;;;14.40;8.82;;;5.00;99.90;;;;;;4877877;29;20049;-62
2024/01/05 04:18:58;;;;;;;15.82;9.18;;;4.90;99.90;;;;;;4879307;29;20060;-63
2024/01/05 04:21:24;;;;;;;15.02;10.77;;;4.80;99.90;;;;;;4879817;29;20053;-62
2024/01/05 04:23:58;;;;;;;16.23;9.80;;;4.80;99.90;;;;;;4878824;29;20090;-62
2024/01/05 04:26:25;;;;;;;15.50;10.25;;;5.10;99.90;;;;;;4878851;29;20147;-63
2024/01/05 04:28:52;;;;;;;14.75;10.25;;;5.10;99.90;;;;;;4862751;29;20057;-62
2024/01/05 04:31:21;;;;;;;16.92;10.57;;;4.80;99.90;;;;;;4878950;29;20437;-62
2024/01/05 04:33:48;;;;;;;16.83;10.23;;;4.90;99.90;;;;;;4879757;29;20362;-63
2024/01/05 04:36:19;;;;;;;13.73;10.00;;;4.90;99.90;;;;;;4878639;29;20365;-62
2024/01/05 04:38:46;;;;;;;18.27;11.10;;;4.90;99.90;;;;;;4878169;29;20305;-63
2024/01/05 04:41:15;;;;;;;17.60;10.77;;;4.90;99.90;;;;;;4878665;29;20061;-62
2024/01/05 04:43:43;;;;;;;18.10;10.90;;;4.90;99.90;;;;;;4878615;29;20049;-62
2024/01/05 04:46:10;;;;;;;14.93;10.32;;;4.90;99.90;;;;;;4875129;29;20057;-63
2024/01/05 04:48:36;;;;;;;16.83;10.95;;;5.10;99.90;;;;;;4862575;29;20072;-63
2024/01/05 04:51:03;;;;;;;17.30;13.07;;;5.10;99.90;;;;;;4878320;29;20064;-62
2024/01/05 04:53:30;;;;;;;15.45;11.10;;;5.10;99.90;;;;;;4878483;29;20057;-62
2024/01/05 04:55:56;;;;;;;17.10;11.57;;;5.00;99.90;;;;;;4877082;29;20048;-63
2024/01/05 04:58:24;;;;;;;18.73;10.93;;;5.10;99.90;;;;;;4878298;29;20360;-63
2024/01/05 05:00:50;;;;;;;16.25;11.10;;;4.90;99.90;;;;;;4878337;29;20060;-63
2024/01/05 05:03:19;;;;;;;18.27;10.95;;;5.10;99.90;;;;;;4879266;29;20384;-62
2024/01/05 05:05:46;;;;;;;20.38;12.38;;;5.10;99.90;;;;;;4893293;29;20071;-64
2024/01/05 05:08:14;;;;;;;17.48;11.00;;;5.00;99.90;;;;;;4877672;29;20053;-62
2024/01/05 05:10:41;;;;;;;15.93;11.15;;;5.00;99.90;;;;;;4862251;29;20389;-62
2024/01/05 05:13:07;;;;;;;17.73;11.02;;;5.30;99.90;;;;;;4878350;29;20583;-63
2024/01/05 05:15:33;;;;;;;21.55;15.32;;;5.00;99.90;;;;;;4869204;29;20129;-63
2024/01/05 05:18:00;;;;;;;19.02;11.52;;;5.30;99.90;;;;;;4859164;29;20068;-63
2024/01/05 05:20:26;;;;;;;15.90;11.25;;;5.10;99.90;;;;;;4860436;29;20061;-62
2024/01/05 05:22:52;;;;;;;18.42;11.27;;;5.30;99.90;;;;;;4859571;29;20049;-62
2024/01/05 05:25:19;;;;;;;18.25;12.02;;;5.10;99.90;;;;;;4859633;29;20061;-63
2024/01/05 05:27:46;;;;;;;17.98;12.18;;;5.10;99.90;;;;;;4860133;29;20454;-63
2024/01/05 05:30:12;;;;;;;18.42;12.05;;;5.20;99.90;;;;;;4859497;29;20090;-62
2024/01/05 05:32:40;;;;;;;18.90;11.25;;;5.30;99.90;;;;;;4860089;29;20435;-62
2024/01/05 05:35:07;;;;;;;16.80;11.02;;;5.10;99.90;;;;;;4866670;29;20053;-63
2024/01/05 05:37:33;;;;;;;18.60;12.15;;;5.20;99.90;;;;;;4878077;29;20468;-62
2024/01/05 05:39:59;;;;;;;19.45;12.02;;;5.20;99.90;;;;;;4878052;29;20049;-62
2024/01/05 05:42:26;;;;;;;17.42;11.55;;;5.40;99.90;;;;;;4878871;29;20055;-64
2024/01/05 05:44:54;;;;;;;14.95;10.70;;;5.20;99.90;;;;;;4873291;29;20048;-63
2024/01/05 05:47:20;;;;;;;17.35;11.25;;;5.20;99.90;;;;;;4874872;29;20061;-62
2024/01/05 05:49:47;;;;;;;19.23;11.65;;;5.30;99.90;;;;;;4862507;29;20065;-63
2024/01/05 05:52:13;;;;;;;17.98;10.77;;;5.20;99.90;;;;;;4859029;29;20072;-63
2024/01/05 05:54:41;;;;;;;15.40;10.52;;;5.20;99.90;;;;;;4877766;29;20049;-63
2024/01/05 05:57:09;;;;;;;18.10;12.35;;;5.30;99.90;;;;;;4878302;29;20155;-63
2024/01/05 05:59:35;;;;;;;17.90;11.88;;;5.40;99.90;;;;;;4877588;29;20064;-63
2024/01/05 06:02:01;;;;;;;18.05;11.38;;;5.30;99.90;;;;;;4889652;29;20335;-63
2024/01/05 06:04:27;;;;;;;17.23;11.00;;;5.40;99.90;;;;;;4875336;29;20045;-64
2024/01/05 06:06:54;;;;;;;17.25;11.90;;;5.30;99.90;;;;;;4875191;29;20053;-63
2024/01/05 06:09:21;;;;;;;16.65;11.13;;;5.30;99.90;;;;;;4877946;29;20056;-63
2024/01/05 06:11:47;;;;;;;18.50;12.98;;;5.50;99.90;;;;;;4876908;29;20057;-62
2024/01/05 06:14:15;;;;;;;17.02;11.50;;;5.30;99.90;;;;;;4868321;29;20080;-63
2024/01/05 06:16:41;;;;;;;18.70;12.57;;;5.30;99.90;;;;;;4876539;29;20049;-62
2024/01/05 06:19:09;;;;;;;17.63;11.75;;;5.50;99.90;;;;;;4876915;29;20056;-62
2024/01/05 06:21:35;;;;;;;18.33;11.80;;;5.40;99.90;;;;;;4876298;29;20053;-63
2024/01/05 06:24:01;;;;;;;20.33;12.20;;;5.30;99.90;;;;;;4877554;29;20064;-62
2024/01/05 06:26:28;;;;;;;18.17;11.23;;;5.40;99.90;;;;;;4859000;29;20079;-63
2024/01/05 06:28:56;;;;;;;18.38;12.65;;;5.60;99.90;;;;;;4851873;29;20061;-63
2024/01/05 06:31:24;;;;;;;20.70;12.65;;;5.60;99.90;;;;;;4877184;29;20056;-63
2024/01/05 06:33:52;;;;;;;19.95;11.85;;;5.60;99.90;;;;;;4878674;29;20053;-63
2024/01/05 06:36:20;;;;;;;18.50;11.38;;;5.40;99.90;;;;;;4875100;29;20059;-62
2024/01/05 06:38:47;;;;;;;22.33;12.32;;;5.60;99.90;;;;;;4877228;29;20049;-63
2024/01/05 06:41:13;;;;;;;19.50;12.30;;;5.60;99.90;;;;;;4877490;29;20049;-62
2024/01/05 06:43:40;;;;;;;19.50;12.32;;;5.50;99.90;;;;;;4876521;29;20049;-63
2024/01/05 06:46:06;;;;;;;21.27;13.20;;;5.50;99.90;;;;;;4874107;29;20049;-61
2024/01/05 06:48:34;;;;;;;23.63;12.65;;;5.50;99.90;;;;;;4876444;29;20060;-62
2024/01/05 06:51:00;;;;;;;20.80;12.30;;;5.70;99.90;;;;;;4875588;29;20072;-63
2024/01/05 06:53:28;;;;;;;19.27;12.32;;;5.50;99.90;;;;;;4876144;29;20068;-63
2024/01/05 06:55:55;;;;;;;19.50;12.45;;;5.70;99.90;;;;;;4864827;29;20053;-62
2024/01/05 06:58:21;;;;;;;19.73;12.50;;;5.60;99.90;;;;;;4857679;29;20053;-63
2024/01/05 07:00:48;;;;;;;20.17;13.05;;;5.50;99.90;;;;;;4842354;29;20363;-61
2024/01/05 07:03:15;;;;;;;19.38;11.82;;;5.60;99.90;;;;;;4857783;29;20489;-62
2024/01/05 07:05:41;;;;;;;22.90;13.20;;;5.60;99.90;;;;;;4867308;29;20057;-63
2024/01/05 07:08:07;;;;;;;22.35;12.57;;;5.80;99.90;;;;;;4877181;29;20053;-62
2024/01/05 07:10:34;;;;;;;19.25;12.23;;;5.90;99.90;;;;;;4876157;29;20064;-62
2024/01/05 07:13:00;;;;;;;22.58;12.20;;;5.60;99.90;;;;;;4876588;29;20515;-62
2024/01/05 07:15:29;;;;;;;19.10;12.38;;;5.60;99.90;;;;;;4868215;29;20057;-63
2024/01/05 07:17:56;;;;;;;23.25;13.60;;;6.00;99.90;;;;;;4842246;29;20057;-63
2024/01/05 07:20:24;;;;;;;22.02;12.88;;;5.80;99.90;;;;;;4857035;29;20061;-62
2024/01/05 07:22:51;;;;;;;25.60;14.27;;;5.90;99.90;;;;;;4858107;29;20090;-62
2024/01/05 07:25:17;;;;;;;20.02;12.07;;;6.00;99.90;;;;;;4849558;29;20041;-62
2024/01/05 07:27:46;;;;;;;21.85;12.10;;;6.00;99.90;;;;;;4876159;29;20474;-62
2024/01/05 07:30:13;;;;;;;19.83;11.98;;;5.80;99.90;;;;;;4870082;29;20045;-63
2024/01/05 07:32:39;;;;;;;19.05;11.02;;;5.90;99.90;;;;;;4867484;29;20061;-63
2024/01/05 07:35:06;;;;;;;21.65;11.85;;;5.90;99.90;;;;;;4863963;29;20057;-64
2024/01/05 07:37:37;;;;;;;18.13;11.07;;;5.70;99.90;;;;;;4862943;29;20060;-62
2024/01/05 07:40:05;;;;;;;23.67;11.90;;;6.10;99.90;;;;;;4877944;29;20048;-63
2024/01/05 07:42:31;;;;;;;21.02;11.57;;;6.00;99.90;;;;;;4880044;29;20060;-64
2024/01/05 07:44:57;;;;;;;17.17;10.65;;;5.90;99.90;;;;;;4866176;29;20071;-62
2024/01/05 07:47:25;;;;;;;19.48;11.18;;;6.10;99.90;;;;;;4874562;29;20053;-63
2024/01/05 07:49:51;;;;;;;22.00;12.38;;;6.10;99.90;;;;;;4862308;29;20057;-63
2024/01/05 07:52:18;;;;;;;20.15;10.77;;;6.10;99.90;;;;;;4861708;29;20049;-62
2024/01/05 07:54:45;;;;;;;22.50;11.75;;;6.00;99.90;;;;;;4864484;29;20049;-63
2024/01/05 07:57:11;;;;;;;16.00;10.55;;;5.90;99.90;;;;;;4881367;29;20048;-63
2024/01/05 07:59:37;;;;;;;15.80;9.60;;;6.10;99.90;;;;;;4879420;29;20373;-63
2024/01/05 08:02:05;;;;;;;16.50;9.45;;;6.00;99.90;;;;;;4879575;29;20060;-62
2024/01/05 08:04:35;;;;;;;18.52;10.10;;;6.20;99.90;;;;;;4874371;29;20350;-63
2024/01/05 08:07:04;;;;;;;17.23;9.68;;;6.00;99.90;;;;;;4880891;29;20493;-63
2024/01/05 08:09:30;;;;;;;16.02;9.23;;;6.10;99.90;;;;;;4879676;29;20056;-62
2024/01/05 08:11:57;;;;;;;19.38;9.65;;;6.20;99.90;;;;;;4881131;29;20049;-62
2024/01/05 08:14:23;;;;;;;15.98;8.85;;;6.20;99.90;;;;;;4880405;29;20060;-63
2024/01/05 08:16:50;;;;;;;16.10;7.43;;;6.20;99.90;;;;;;4861323;29;20045;-63
2024/01/05 08:19:17;;;;;;;11.38;6.88;;;6.20;99.90;;;;;;4846361;29;20072;-62
2024/01/05 08:21:43;;;;;;;12.88;5.82;;;6.30;99.90;;;;;;4862059;29;20060;-63
2024/01/05 08:24:10;;;;;;;8.43;4.63;;;6.20;99.90;;;;;;4862891;29;20132;-63
2024/01/05 08:26:37;;;;;;;11.70;4.78;;;6.30;99.90;;;;;;4863371;29;20061;-62
2024/01/05 08:29:03;;;;;;;8.40;4.25;;;6.40;99.90;;;;;;4861104;29;20518;-63
2024/01/05 08:31:30;;;;;;;10.82;4.07;;;6.60;99.90;;;;;;4862202;29;20088;-63
2024/01/05 08:33:56;;;;;;;11.80;4.90;;;6.80;99.90;;;;;;4861091;29;20355;-63
2024/01/05 08:36:23;;;;;;;7.95;3.83;;;6.80;99.90;;;;;;4875459;29;20056;-63
2024/01/05 08:38:49;;;;;;;8.18;4.30;;;6.60;99.90;;;;;;4872148;29;20068;-63
2024/01/05 08:41:18;;;;;;;10.63;4.50;;;6.70;99.90;;;;;;4861732;29;20443;-63
2024/01/05 08:43:44;;;;;;;10.48;4.47;;;6.90;99.90;;;;;;4861098;29;20056;-63
2024/01/05 08:46:11;;;;;;;10.85;4.60;;;6.90;99.90;;;;;;4875087;29;20351;-62
2024/01/05 08:48:38;;;;;;;8.23;3.70;;;6.70;99.90;;;;;;4864068;29;20056;-62
2024/01/05 08:51:04;;;;;;;9.20;4.10;;;7.00;99.90;;;;;;4863353;29;20053;-62
2024/01/05 08:53:31;;;;;;;10.77;3.75;;;6.80;99.90;;;;;;4879343;29;20261;-63
2024/01/05 08:55:57;;;;;;;8.70;3.83;;;6.90;99.90;;;;;;4868630;29;20053;-63
2024/01/05 08:58:23;;;;;;;8.35;3.58;;;7.00;99.90;;;;;;4861181;29;20472;-63
2024/01/05 09:00:50;;;;;;;6.50;3.55;;;7.00;99.90;;;;;;4860301;29;20425;-63
2024/01/05 09:03:16;;;;;;;7.10;3.33;;;6.70;99.90;;;;;;4860651;29;20486;-61
2024/01/05 09:05:42;;;;;;;6.85;3.38;;;7.00;99.90;;;;;;4870067;29;20075;-61
2024/01/05 09:08:09;;;;;;;5.07;3.00;;;6.80;99.90;;;;;;4879935;29;20076;-63
2024/01/05 09:10:38;;;;;;;7.18;2.95;;;7.00;99.90;;;;;;4879733;29;20061;-64
2024/01/05 09:13:04;;;;;;;4.85;3.00;;;7.00;99.90;;;;;;4878884;29;20450;-62
2024/01/05 09:15:30;;;;;;;5.10;2.67;;;6.80;99.90;;;;;;4878032;29;20049;-63
2024/01/05 09:17:56;;;;;;;4.45;2.85;;;7.00;99.90;;;;;;4878942;29;20049;-62
2024/01/05 09:20:23;;;;;;;6.18;2.60;;;7.10;99.90;;;;;;4862987;29;20056;-63
2024/01/05 09:22:50;;;;;;;5.00;2.78;;;7.10;99.90;;;;;;4878782;29;20093;-63
2024/01/05 09:25:16;;;;;;;5.47;2.10;;;7.10;99.90;;;;;;4872688;29;20106;-63
2024/01/05 09:27:43;;;;;;;5.13;1.90;;;7.00;99.90;;;;;;4861597;29;20072;-62
2024/01/05 09:30:09;;;;;;;5.40;2.97;;;7.10;99.90;;;;;;4861284;29;20058;-63
2024/01/05 09:32:35;;;;;;;3.90;1.80;;;7.10;99.90;;;;;;4861013;29;20386;-62
2024/01/05 09:35:02;;;;;;;4.32;2.00;;;7.10;99.90;;;;;;4879998;29;20477;-63
2024/01/05 09:37:29;;;;;;;4.47;1.92;;;7.10;99.90;;;;;;4879686;29;20057;-63
2024/01/05 09:39:55;;;;;;;5.75;1.85;;;7.10;99.90;;;;;;4862502;29;20053;-62
2024/01/05 09:42:22;;;;;;;6.72;1.83;;;7.10;99.90;;;;;;4860206;29;20076;-62
2024/01/05 09:44:51;;;;;;;3.10;1.75;;;7.00;99.90;;;;;;4863339;29;20076;-63
2024/01/05 09:47:19;;;;;;;6.82;1.95;;;7.10;99.90;;;;;;4862103;29;20057;-63
2024/01/05 09:49:49;;;;;;;4.45;1.63;;;7.00;99.90;;;;;;4885496;29;20068;-63
2024/01/05 09:52:18;;;;;;;2.35;1.60;;;7.00;99.90;;;;;;4878957;29;20401;-62
2024/01/05 09:54:46;;;;;;;3.90;1.80;;;7.10;99.90;;;;;;4876339;29;20053;-63
2024/01/05 09:57:16;;;;;;;3.00;1.73;;;7.10;99.90;;;;;;4859579;29;20076;-63
2024/01/05 09:59:45;;;;;;;4.80;1.88;;;7.00;99.90;;;;;;4863598;29;20063;-63
2024/01/05 10:02:18;;;;;;;3.72;1.80;;;7.10;99.90;;;;;;4878898;29;20063;-63
2024/01/05 10:04:44;;;;;;;3.95;1.83;;;7.20;99.90;;;;;;4879061;29;20144;-62
2024/01/05 10:07:10;;;;;;;3.35;1.98;;;7.00;99.90;;;;;;4893421;29;20624;-62
2024/01/05 10:09:49;;;;;;;3.67;1.60;;;7.00;99.90;;;;;;4879033;29;20057;-62
2024/01/05 10:12:17;;;;;;;2.17;1.40;;;7.20;99.90;;;;;;4878197;29;20057;-62
2024/01/05 10:14:46;;;;;;;2.45;1.70;;;7.20;99.90;;;;;;4876326;29;20365;-63
2024/01/05 10:17:13;;;;;;;2.83;1.50;;;7.20;99.90;;;;;;4859428;29;20061;-62
2024/01/05 10:19:41;;;;;;;2.50;1.50;;;7.10;99.90;;;;;;4859416;29;20053;-63
2024/01/05 10:22:12;;;;;;;4.00;1.60;;;7.20;99.90;;;;;;4862089;29;20053;-62
2024/01/05 10:24:39;;;;;;;2.67;1.38;;;7.20;99.90;;;;;;4877789;29;20060;-63
2024/01/05 10:27:06;;;;;;;3.10;1.52;;;7.10;99.90;;;;;;4878236;29;20059;-63
2024/01/05 10:29:38;;;;;;;2.70;1.52;;;7.10;99.90;;;;;;4877948;29;20065;-63
2024/01/05 10:32:18;;;;;;;2.47;1.15;;;7.00;99.90;;;;;;4877854;29;20061;-63
2024/01/05 10:34:49;;;;;;;1.77;1.10;;;7.00;99.90;;;;;;4875872;29;20056;-63
2024/01/05 10:37:17;;;;;;;3.50;1.20;;;7.00;99.90;;;;;;4874893;29;20093;-63
2024/01/05 10:39:51;;;;;;;2.40;1.40;;;7.10;99.90;;;;;;4875076;29;20071;-63
2024/01/05 10:42:19;;;;;;;1.92;1.30;;;6.80;99.90;;;;;;4862484;29;20049;-62
2024/01/05 10:44:47;;;;;;;2.35;1.25;;;7.00;99.90;;;;;;4877064;29;20056;-63
2024/01/05 10:47:14;;;;;;;2.03;1.10;;;7.00;99.90;;;;;;4877707;29;20053;-63
2024/01/05 10:49:51;;;;;;;3.13;1.50;;;6.90;99.90;;;;;;4877175;29;20565;-63
2024/01/05 10:52:19;;;;;;;4.18;1.60;;;6.90;99.90;;;;;;4876066;29;20068;-63
2024/01/05 10:54:47;;;;;;;2.42;1.30;;;7.00;99.90;;;;;;4860694;29;20053;-63
2024/01/05 10:57:16;;;;;;;3.35;1.50;;;6.80;99.90;;;;;;4877028;29;20049;-63
2024/01/05 10:59:46;;;;;;;2.17;1.23;;;6.90;99.90;;;;;;4877021;29;20057;-63
2024/01/05 11:02:19;;;;;;;2.05;1.40;;;6.90;99.90;;;;;;4877582;29;20053;-63
2024/01/05 11:04:49;;;;;;;5.00;1.55;;;6.90;99.90;;;;;;4861377;29;20049;-63
2024/01/05 11:07:17;;;;;;;3.00;1.83;;;6.90;99.90;;;;;;4862396;29;20071;-63
2024/01/05 11:10:16;;;;;;;4.40;2.10;;;6.90;99.90;;;;;;4877090;29;20052;-62
2024/01/05 11:12:42;;;;;;;;;;;6.80;99.90;;;;;;4862550;29;20067;-63
2024/01/05 11:15:42;;;;;;;4.05;1.80;;;6.90;99.90;;;;;;4873882;29;19927;-63
2024/01/05 11:18:14;;;;;;;4.03;1.73;;;6.70;99.90;;;;;;4858928;29;20058;-62
2024/01/05 11:21:03;;;;;;;3.92;2.10;;;6.70;99.90;;;;;;4860271;29;20130;-63
2024/01/05 11:23:33;;;;;;;3.22;1.73;;;6.80;99.90;;;;;;4875207;29;20046;-63
2024/01/05 11:25:59;;;;;;;3.70;1.58;;;6.60;99.90;;;;;;4870348;29;20053;-63
2024/01/05 11:28:34;;;;;;;5.68;2.28;;;6.80;99.90;;;;;;4877683;29;20060;-62
2024/01/05 11:31:00;;;;;;;3.38;2.10;;;6.70;99.90;;;;;;4877087;29;20045;-63
2024/01/05 11:33:43;;;;;;;2.92;1.70;;;6.80;99.90;;;;;;4877333;29;20068;-63
2024/01/05 11:36:10;;;;;;;2.53;1.98;;;6.60;99.90;;;;;;4876653;29;20061;-63
2024/01/05 11:38:44;;;;;;;3.70;1.83;;;6.90;99.90;;;;;;4869985;29;20072;-63
2024/01/05 11:41:18;;;;;;;2.83;1.60;;;6.80;99.90;;;;;;4843016;29;20050;-62
2024/01/05 11:43:44;;;;;;;3.15;2.10;;;6.90;99.90;;;;;;4874021;29;20448;-63
2024/01/05 11:46:10;;;;;;;2.78;1.92;;;6.90;99.90;;;;;;4870413;29;20064;-62
2024/01/05 11:48:37;;;;;;;3.88;2.03;;;6.90;99.90;;;;;;4877057;29;20057;-63
2024/01/05 11:51:14;;;;;;;4.68;2.00;;;6.70;99.90;;;;;;4876398;29;20064;-63
2024/01/05 11:53:43;;;;;;;2.58;1.80;;;6.80;99.90;;;;;;4877926;29;20060;-62
2024/01/05 11:56:14;;;;;;;2.03;1.38;;;6.70;99.90;;;;;;4853804;29;20080;-62
2024/01/05 11:58:43;;;;;;;1.75;1.20;;;6.60;99.90;;;;;;4824031;29;20054;-63
2024/01/05 12:01:11;;;;;;;2.10;1.60;;;6.80;99.90;;;;;;4840567;29;20366;-63
2024/01/05 12:03:40;;;;;;;2.00;1.50;;;6.70;99.90;;;;;;4841030;29;20137;-63
2024/01/05 12:06:11;;;;;;;2.55;1.70;;;6.80;99.90;;;;;;4856918;29;20065;-63
2024/01/05 12:08:39;;;;;;;3.05;1.38;;;6.90;99.90;;;;;;4873100;29;20462;-63
2024/01/05 12:11:08;;;;;;;3.90;1.90;;;6.80;99.90;;;;;;4842700;29;20530;-63
2024/01/05 12:13:37;;;;;;;5.55;3.00;;;6.70;99.90;;;;;;4858361;29;20062;-62
2024/01/05 12:16:04;;;;;;;6.10;3.08;;;6.90;99.90;;;;;;4869992;29;20053;-62
2024/01/05 12:18:32;;;;;;;6.05;3.05;;;6.90;99.90;;;;;;4859370;29;20439;-63
2024/01/05 12:21:02;;;;;;;2.85;1.90;;;6.70;99.90;;;;;;4840124;29;20050;-63
2024/01/05 12:23:32;;;;;;;3.33;1.73;;;6.90;99.90;;;;;;4842385;29;20088;-63
2024/01/05 12:25:59;;;;;;;1.75;1.30;;;6.70;99.90;;;;;;4839013;29;20061;-63
2024/01/05 12:28:33;;;;;;;2.20;1.50;;;6.80;99.90;;;;;;4861628;29;20064;-62
2024/01/05 12:31:02;;;;;;;2.63;1.80;;;6.60;99.90;;;;;;4864365;29;20061;-63
2024/01/05 12:33:30;;;;;;;2.63;1.30;;;6.80;99.90;;;;;;4862962;29;20056;-63
2024/01/05 12:35:56;;;;;;;2.40;1.50;;;6.80;99.90;;;;;;4871717;29;20465;-62
2024/01/05 12:38:28;;;;;;;2.30;1.25;;;6.60;99.90;;;;;;4874677;29;20057;-63
2024/01/05 12:41:08;;;;;;;;;;;6.60;99.90;;;;;;4847375;29;20200;-63
2024/01/05 12:43:53;;;;;;;2.00;1.10;;;6.50;99.90;;;;;;4846041;29;19938;-63
2024/01/05 12:46:22;;;;;;;2.28;1.65;;;6.60;99.90;;;;;;4880351;29;20482;-62
2024/01/05 12:48:50;;;;;;;1.88;1.10;;;6.60;99.90;;;;;;4865693;29;20061;-63
2024/01/05 12:51:19;;;;;;;3.53;1.20;;;6.50;99.90;;;;;;4865802;29;20065;-63